createdAt,value
2023-01-13T00:10:43.304Z,9.45
2023-01-13T00:40:43.260Z,9.34
2023-01-13T01:10:43.105Z,9.07
2023-01-13T01:40:43.009Z,8.84
2023-01-13T02:10:42.971Z,8.76
2023-01-13T02:40:42.834Z,8.54
2023-01-13T03:00:54.180Z,8.23
2023-01-13T03:10:42.695Z,8.09
2023-01-13T03:23:53.984Z,7.78
2023-01-13T03:35:53.999Z,7.42
2023-01-13T03:40:42.598Z,7.31
2023-01-13T04:10:42.426Z,7.12
2023-01-13T04:40:42.285Z,7.23
2023-01-13T05:02:53.686Z,7.54
2023-01-13T05:10:42.326Z,7.61
2023-01-13T06:00:53.677Z,7.29
2023-01-13T06:10:42.064Z,7.34
2023-01-13T06:40:41.845Z,7.4
2023-01-13T07:00:53.335Z,7.09
2023-01-13T07:40:41.542Z,6.92
2023-01-13T08:10:41.428Z,7.18
2023-01-13T08:40:41.335Z,7.5
2023-01-13T09:10:41.317Z,7.65
2023-01-13T09:40:41.243Z,7.86
2023-01-13T10:10:41.142Z,8.04
2023-01-13T10:40:41.015Z,8.11
2023-01-13T10:56:52.793Z,8.45
2023-01-13T11:06:52.839Z,8.76
2023-01-13T11:10:40.990Z,8.84
2023-01-13T11:32:52.811Z,8.52
2023-01-13T11:36:52.808Z,8.17
2023-01-13T11:39:52.819Z,7.78
2023-01-13T11:40:40.957Z,7.68
2023-01-13T11:44:52.770Z,7.37
2023-01-13T12:10:40.914Z,7.43
2023-01-13T12:40:40.830Z,7.17
2023-01-13T13:10:40.637Z,7.48
2023-01-13T13:40:40.484Z,7.4
2023-01-13T14:10:40.458Z,7.37
2023-01-13T14:40:40.227Z,7.09
2023-01-13T15:10:40.038Z,6.92
2023-01-13T15:25:52.120Z,6.61
2023-01-13T15:40:40.025Z,6.49
2023-01-13T16:10:40.024Z,6.52
2023-01-13T16:40:39.998Z,6.63
2023-01-13T17:10:39.969Z,6.5
2023-01-13T17:40:39.886Z,6.63
2023-01-13T18:10:39.779Z,6.42
2023-01-13T18:34:58.684Z,6.75
2023-01-13T18:40:39.656Z,6.81
2023-01-13T19:10:39.583Z,7
2023-01-13T19:40:39.465Z,7.11
2023-01-13T20:10:40.426Z,7.34
2023-01-13T20:40:39.298Z,7.42
2023-01-13T21:10:39.186Z,7.22
2023-01-13T21:40:39.120Z,7.07
2023-01-13T22:10:39.056Z,7.06
2023-01-13T22:40:38.886Z,7.09
2023-01-13T23:10:38.791Z,7.17
2023-01-13T23:40:38.659Z,7.14
